Time;durP1;ratioP1;P1;durP2;ratioP2;P2;SDS_P1;SDS_P2;PMS_P1;PMS_P2;Temp;Humidity;BMP_temperature;BMP_pressure;BME280_temperature;BME280_humidity;BME280_pressure;Samples;Min_cycle;Max_cycle;Signal;HPM_P1;HPM_P2
2023/09/27 00:00:34;;;;;;;1.45;1.35;;;12.70;92.30;;;;;;5126981;27;20091;-71
2023/09/27 00:03:00;;;;;;;1.23;1.13;;;12.70;91.60;;;;;;5125290;27;20027;-72
2023/09/27 00:05:26;;;;;;;0.35;0.35;;;12.70;99.90;;;;;;5125214;27;20038;-72
2023/09/27 00:07:51;;;;;;;2.63;2.10;;;12.80;99.90;;;;;;5128199;27;20116;-72
2023/09/27 00:10:17;;;;;;;3.08;2.13;;;12.80;99.90;;;;;;5128269;27;20035;-72
2023/09/27 00:12:45;;;;;;;2.78;2.17;;;12.70;99.90;;;;;;5126582;27;20039;-72
2023/09/27 00:15:11;;;;;;;2.50;1.02;;;12.80;99.90;;;;;;5125241;27;20400;-72
2023/09/27 00:17:38;;;;;;;1.38;1.05;;;12.80;99.90;;;;;;5125210;27;20036;-72
2023/09/27 00:20:22;;;;;;;0.65;0.65;;;12.90;99.90;;;;;;5128536;27;20749;-72
2023/09/27 00:22:48;;;;;;;0.63;0.63;;;12.90;99.90;;;;;;5127498;27;20138;-72
2023/09/27 00:25:14;;;;;;;0.70;0.65;;;13.00;99.90;;;;;;5124858;27;20168;-72
2023/09/27 00:27:41;;;;;;;4.18;1.75;;;12.80;99.90;;;;;;5124818;27;20048;-72
2023/09/27 00:30:09;;;;;;;0.68;0.68;;;12.80;99.90;;;;;;5126923;27;20067;-72
2023/09/27 00:32:35;;;;;;;1.63;1.52;;;12.70;99.90;;;;;;5127765;27;20046;-72
2023/09/27 00:35:01;;;;;;;1.48;1.33;;;12.80;99.90;;;;;;5127097;27;20130;-72
2023/09/27 00:37:27;;;;;;;1.65;0.68;;;12.80;99.90;;;;;;5124558;27;20041;-72
2023/09/27 00:39:54;;;;;;;0.38;0.30;;;12.80;99.90;;;;;;5124581;27;20496;-72
2023/09/27 00:42:20;;;;;;;0.43;0.38;;;12.80;99.90;;;;;;5126815;27;20134;-72
2023/09/27 00:44:46;;;;;;;1.88;1.33;;;12.80;99.90;;;;;;5127567;27;20126;-72
2023/09/27 00:47:12;;;;;;;1.35;0.88;;;12.80;99.90;;;;;;5125847;27;20051;-72
2023/09/27 00:49:39;;;;;;;0.90;0.82;;;12.80;99.90;;;;;;5124448;27;20054;-72
2023/09/27 00:52:04;;;;;;;0.63;0.60;;;12.80;99.90;;;;;;5124250;27;20064;-72
2023/09/27 00:54:31;;;;;;;2.40;1.63;;;12.70;99.90;;;;;;5126586;27;20485;-72
2023/09/27 00:56:58;;;;;;;1.58;1.05;;;12.70;99.90;;;;;;5127775;27;20039;-72
2023/09/27 00:59:25;;;;;;;2.28;1.08;;;12.60;99.90;;;;;;5126999;27;20039;-72
2023/09/27 01:01:52;;;;;;;1.20;1.10;;;12.60;99.90;;;;;;5119862;27;20065;-72
2023/09/27 01:04:18;;;;;;;0.60;0.50;;;12.50;99.90;;;;;;5127420;27;20035;-71
2023/09/27 01:06:46;;;;;;;2.08;1.30;;;12.40;99.90;;;;;;5125189;27;20495;-71
2023/09/27 01:09:12;;;;;;;1.98;1.00;;;12.40;99.90;;;;;;5123763;27;20477;-72
2023/09/27 01:11:38;;;;;;;1.15;0.95;;;12.40;99.90;;;;;;5124400;27;20091;-72
2023/09/27 01:14:04;;;;;;;0.70;0.70;;;12.30;99.90;;;;;;5127279;27;20070;-72
2023/09/27 01:16:30;;;;;;;2.42;0.85;;;12.20;99.90;;;;;;5127218;27;20031;-72
2023/09/27 01:19:03;;;;;;;2.28;0.95;;;12.30;99.90;;;;;;5125013;27;20088;-72
2023/09/27 01:21:29;;;;;;;1.98;1.02;;;12.30;99.90;;;;;;5123936;27;20082;-72
2023/09/27 01:23:55;;;;;;;1.67;0.90;;;12.20;99.90;;;;;;5124890;27;20509;-72
2023/09/27 01:26:22;;;;;;;1.40;0.88;;;12.30;1.00;;;;;;5126687;27;20404;-72
2023/09/27 01:28:48;;;;;;;0.93;0.75;;;12.30;1.00;;;;;;5126664;27;20537;-72
2023/09/27 01:31:13;;;;;;;1.70;1.58;;;12.30;1.00;;;;;;5123243;27;20123;-72
2023/09/27 01:33:40;;;;;;;1.50;1.23;;;12.30;99.90;;;;;;5123331;27;20050;-72
2023/09/27 01:36:06;;;;;;;3.40;1.58;;;12.30;1.00;;;;;;5124681;27;20169;-72
2023/09/27 01:38:33;;;;;;;1.73;1.55;;;12.20;99.90;;;;;;5125646;27;20045;-72
2023/09/27 01:40:58;;;;;;;1.42;0.70;;;12.10;99.90;;;;;;5127061;27;20049;-72
2023/09/27 01:43:24;;;;;;;1.60;1.20;;;12.20;99.90;;;;;;5123648;27;20608;-72
2023/09/27 01:45:50;;;;;;;1.05;0.90;;;12.10;99.90;;;;;;5123248;27;20035;-72
2023/09/27 01:48:16;;;;;;;2.20;1.20;;;12.20;1.00;;;;;;5124155;27;20399;-73
2023/09/27 01:50:41;;;;;;;1.35;1.25;;;12.20;99.90;;;;;;5126263;27;20508;-72
2023/09/27 01:53:07;;;;;;;1.88;1.20;;;12.10;99.90;;;;;;5113365;27;20058;-72
2023/09/27 01:55:33;;;;;;;9.02;1.13;;;12.10;99.90;;;;;;5124824;27;20048;-72
2023/09/27 01:58:00;;;;;;;1.65;1.10;;;12.10;1.00;;;;;;5126402;27;20412;-72
2023/09/27 02:00:25;;;;;;;0.98;0.88;;;12.10;1.00;;;;;;5125328;27;20041;-72
2023/09/27 02:02:58;;;;;;;2.00;1.33;;;12.00;1.00;;;;;;5122890;27;20508;-72
2023/09/27 02:05:29;;;;;;;2.30;1.45;;;12.00;1.00;;;;;;5123111;27;20043;-72
2023/09/27 02:07:55;;;;;;;3.35;2.42;;;11.90;1.00;;;;;;5114912;27;20035;-72
2023/09/27 02:10:21;;;;;;;0.50;0.50;;;11.90;1.00;;;;;;5123020;27;20036;-72
2023/09/27 02:12:47;;;;;;;0.50;0.30;;;11.80;1.00;;;;;;5124589;27;20499;-72
2023/09/27 02:15:14;;;;;;;2.50;0.75;;;11.80;1.00;;;;;;5126063;27;20114;-72
2023/09/27 02:17:41;;;;;;;1.85;0.57;;;11.80;1.00;;;;;;5124432;27;20039;-72
2023/09/27 02:20:09;;;;;;;0.77;0.77;;;11.80;1.00;;;;;;5122992;27;20039;-72
2023/09/27 02:22:35;;;;;;;0.35;0.32;;;11.70;1.00;;;;;;5122771;27;20040;-72
2023/09/27 02:25:01;;;;;;;2.33;1.33;;;11.70;1.00;;;;;;5125025;27;20036;-72
2023/09/27 02:27:27;;;;;;;2.38;1.27;;;11.70;1.00;;;;;;5125803;27;20498;-72
2023/09/27 02:29:53;;;;;;;1.70;1.15;;;11.70;1.00;;;;;;5125384;27;20039;-72
2023/09/27 02:32:18;;;;;;;1.00;0.85;;;11.70;1.00;;;;;;5122560;27;20039;-72
2023/09/27 02:34:44;;;;;;;0.73;0.73;;;11.70;1.00;;;;;;5122609;27;20126;-72
2023/09/27 02:37:10;;;;;;;2.95;0.63;;;11.70;15.60;;;;;;5122053;27;20043;-71
2023/09/27 02:39:36;;;;;;;1.35;1.08;;;11.70;7.00;;;;;;5122599;27;20439;-73
2023/09/27 02:42:03;;;;;;;4.13;1.67;;;11.70;24.20;;;;;;5122475;28;20493;-72
2023/09/27 02:44:28;;;;;;;8.40;2.50;;;11.70;21.20;;;;;;5096045;28;20043;-72
2023/09/27 02:46:55;;;;;;;2.00;1.10;;;11.70;85.00;;;;;;5123083;28;20050;-72
2023/09/27 02:49:21;;;;;;;0.65;0.55;;;11.80;99.90;;;;;;5124774;28;20055;-72
2023/09/27 02:51:48;;;;;;;2.13;0.95;;;11.70;99.90;;;;;;5125690;28;20051;-72
2023/09/27 02:54:14;;;;;;;1.25;0.93;;;11.80;99.90;;;;;;5125864;27;20084;-72
2023/09/27 02:56:45;;;;;;;3.55;2.08;;;11.60;99.90;;;;;;5122602;28;20476;-72
2023/09/27 02:59:11;;;;;;;4.32;1.55;;;11.60;95.90;;;;;;5122580;28;20036;-72
2023/09/27 03:01:40;;;;;;;2.30;0.77;;;11.60;50.40;;;;;;5124945;28;20042;-72
2023/09/27 03:04:07;;;;;;;2.60;0.95;;;11.70;22.30;;;;;;5126026;27;20432;-72
2023/09/27 03:06:35;;;;;;;2.30;1.25;;;11.60;95.50;;;;;;5124940;27;20042;-72
2023/09/27 03:09:00;;;;;;;1.95;0.88;;;11.60;99.90;;;;;;5122205;28;20036;-72
2023/09/27 03:11:26;;;;;;;1.13;1.02;;;11.70;99.90;;;;;;5122087;28;20066;-73
2023/09/27 03:13:52;;;;;;;2.10;0.93;;;11.60;93.90;;;;;;5124228;28;20040;-73
2023/09/27 03:16:17;;;;;;;1.88;1.70;;;11.60;81.20;;;;;;5125521;28;20035;-73
2023/09/27 03:18:43;;;;;;;1.10;0.93;;;11.80;59.20;;;;;;5124820;27;20540;-72
2023/09/27 03:21:09;;;;;;;2.00;1.58;;;11.50;46.20;;;;;;5122198;28;20111;-73
2023/09/27 03:23:35;;;;;;;0.65;0.65;;;11.50;28.40;;;;;;5122010;28;20043;-73
2023/09/27 03:26:01;;;;;;;2.80;2.00;;;11.50;48.70;;;;;;5124210;27;20135;-73
2023/09/27 03:28:27;;;;;;;2.58;2.00;;;11.40;73.30;;;;;;5125249;27;20050;-73
2023/09/27 03:30:53;;;;;;;0.77;0.77;;;11.40;99.90;;;;;;5125016;28;20042;-73
2023/09/27 03:33:18;;;;;;;2.53;0.57;;;12.30;99.90;;;;;;5122072;27;20031;-73
2023/09/27 03:35:44;;;;;;;1.42;1.25;;;11.30;99.90;;;;;;5121817;28;20047;-73
2023/09/27 03:38:11;;;;;;;0.70;0.70;;;11.40;99.90;;;;;;5123483;28;20560;-72
2023/09/27 03:40:40;;;;;;;1.45;1.00;;;11.40;99.90;;;;;;5125297;27;20054;-73
2023/09/27 03:43:05;;;;;;;2.00;1.25;;;11.40;99.90;;;;;;5124617;27;20575;-73
2023/09/27 03:45:34;;;;;;;2.95;1.50;;;11.30;99.90;;;;;;5122175;28;20031;-73
2023/09/27 03:47:59;;;;;;;0.75;0.65;;;11.30;99.90;;;;;;5123183;27;20389;-73
2023/09/27 03:50:25;;;;;;;3.30;1.35;;;11.30;99.90;;;;;;5127922;27;20043;-73
2023/09/27 03:52:56;;;;;;;2.65;1.77;;;11.40;99.90;;;;;;5128486;27;20450;-73
2023/09/27 03:55:22;;;;;;;1.00;0.88;;;11.30;99.90;;;;;;5127715;27;20084;-73
2023/09/27 03:57:47;;;;;;;6.57;1.90;;;11.30;99.90;;;;;;5125298;27;20040;-73
2023/09/27 04:00:14;;;;;;;0.77;0.77;;;11.30;99.90;;;;;;5125691;27;20046;-73
2023/09/27 04:02:41;;;;;;;3.03;0.95;;;11.30;99.90;;;;;;5128136;27;20104;-72
2023/09/27 04:05:07;;;;;;;0.65;0.60;;;11.20;99.90;;;;;;5128848;27;20032;-72
2023/09/27 04:07:33;;;;;;;1.80;1.65;;;11.20;99.90;;;;;;5126419;27;20397;-73
2023/09/27 04:10:00;;;;;;;0.75;0.75;;;11.20;99.90;;;;;;5125044;27;20069;-73
2023/09/27 04:12:26;;;;;;;3.22;1.60;;;11.20;99.90;;;;;;5125223;27;20036;-73
2023/09/27 04:14:52;;;;;;;3.42;1.55;;;11.20;99.90;;;;;;5127567;27;20078;-73
2023/09/27 04:17:17;;;;;;;0.80;0.60;;;11.20;99.90;;;;;;5128401;27;20080;-73
2023/09/27 04:19:43;;;;;;;1.23;1.05;;;11.20;99.90;;;;;;5127900;27;20043;-73
2023/09/27 04:22:09;;;;;;;3.15;1.95;;;11.20;99.90;;;;;;5125211;27;20492;-73
2023/09/27 04:24:34;;;;;;;2.55;1.65;;;11.20;99.90;;;;;;5124847;27;20040;-73
2023/09/27 04:27:00;;;;;;;4.00;1.73;;;11.10;99.90;;;;;;5126943;27;20039;-72
2023/09/27 04:29:26;;;;;;;1.05;0.77;;;11.20;99.90;;;;;;5128105;27;20035;-73
2023/09/27 04:31:52;;;;;;;0.52;0.47;;;11.20;99.90;;;;;;5128213;27;20043;-73
2023/09/27 04:34:18;;;;;;;0.98;0.60;;;11.10;99.90;;;;;;5116041;27;20070;-73
2023/09/27 04:36:44;;;;;;;0.82;0.82;;;11.10;99.90;;;;;;5125065;27;20433;-73
2023/09/27 04:39:16;;;;;;;4.13;2.25;;;11.10;99.90;;;;;;5125980;27;20051;-73
2023/09/27 04:41:43;;;;;;;1.60;1.08;;;11.10;99.90;;;;;;5128081;27;20465;-73
2023/09/27 04:44:09;;;;;;;1.25;0.95;;;11.20;99.90;;;;;;5127331;27;20053;-73
2023/09/27 04:46:34;;;;;;;1.80;0.80;;;11.20;99.90;;;;;;5124374;27;20118;-73
2023/09/27 04:49:02;;;;;;;2.03;1.65;;;11.40;1.00;;;;;;5124303;27;20092;-73
2023/09/27 04:51:27;;;;;;;1.63;1.50;;;11.20;99.90;;;;;;5126045;27;20481;-73
2023/09/27 04:53:53;;;;;;;1.48;1.23;;;11.20;1.00;;;;;;5127942;27;20055;-73
2023/09/27 04:56:19;;;;;;;2.30;1.30;;;11.30;1.00;;;;;;5126985;27;20047;-73
2023/09/27 04:58:44;;;;;;;2.63;2.38;;;11.30;1.00;;;;;;5123139;27;20039;-73
2023/09/27 05:01:10;;;;;;;1.52;1.38;;;11.30;1.00;;;;;;5123692;27;20036;-73
2023/09/27 05:03:37;;;;;;;0.82;0.82;;;11.20;1.00;;;;;;5125847;27;20090;-73
2023/09/27 05:06:03;;;;;;;1.83;1.67;;;11.20;1.00;;;;;;5127421;27;20043;-73
2023/09/27 05:08:29;;;;;;;5.85;2.05;;;11.20;1.00;;;;;;5127074;27;20488;-73
2023/09/27 05:10:56;;;;;;;1.88;1.67;;;11.20;1.00;;;;;;5124076;27;20039;-73
2023/09/27 05:13:22;;;;;;;3.22;1.45;;;11.20;1.00;;;;;;5123597;27;20039;-73
2023/09/27 05:15:53;;;;;;;5.00;1.88;;;11.10;1.00;;;;;;5125431;27;20376;-73
2023/09/27 05:18:22;;;;;;;2.45;1.58;;;11.20;1.00;;;;;;5123528;27;20069;-73
2023/09/27 05:20:48;;;;;;;5.50;1.85;;;11.10;1.00;;;;;;5124991;27;20431;-73
2023/09/27 05:23:13;;;;;;;2.42;1.38;;;11.10;1.00;;;;;;5124957;27;20047;-73
2023/09/27 05:25:40;;;;;;;2.70;0.77;;;11.00;1.00;;;;;;5123732;27;20071;-72
2023/09/27 05:28:06;;;;;;;2.70;1.58;;;11.10;1.00;;;;;;5126067;27;20488;-73
2023/09/27 05:30:31;;;;;;;2.67;2.38;;;11.30;1.00;;;;;;5126642;27;20067;-73
2023/09/27 05:32:57;;;;;;;1.38;1.25;;;11.30;80.00;;;;;;5123782;27;20043;-74
2023/09/27 05:35:23;;;;;;;1.23;0.63;;;11.50;99.90;;;;;;5123675;27;20496;-74
2023/09/27 05:37:50;;;;;;;1.38;1.27;;;11.60;99.90;;;;;;5123554;27;20055;-74
2023/09/27 05:40:16;;;;;;;1.40;1.30;;;11.90;99.90;;;;;;5123754;27;20043;-74
2023/09/27 05:42:42;;;;;;;1.40;1.30;;;12.00;99.90;;;;;;5123621;27;20040;-74
2023/09/27 05:45:11;;;;;;;2.35;1.48;;;12.00;99.90;;;;;;5114665;27;20040;-74
2023/09/27 05:47:38;;;;;;;1.90;1.67;;;12.00;36.20;;;;;;5120459;27;20110;-74
2023/09/27 05:50:04;;;;;;;0.75;0.75;;;11.90;10.40;;;;;;5123722;27;20062;-74
2023/09/27 05:52:30;;;;;;;3.85;2.05;;;12.00;1.00;;;;;;5122171;27;20101;-74
2023/09/27 05:54:56;;;;;;;2.47;1.45;;;12.00;1.00;;;;;;5122401;27;20126;-74
2023/09/27 05:57:22;;;;;;;4.82;2.15;;;12.00;1.00;;;;;;5125683;27;20506;-74
2023/09/27 05:59:48;;;;;;;1.70;1.58;;;12.00;1.00;;;;;;5124627;27;20043;-74
2023/09/27 06:02:17;;;;;;;1.48;0.85;;;12.10;1.00;;;;;;5124091;27;20473;-74
2023/09/27 06:04:44;;;;;;;1.30;0.98;;;12.10;1.00;;;;;;5122366;27;20047;-74
2023/09/27 06:07:13;;;;;;;1.13;0.88;;;12.10;1.00;;;;;;5122436;27;20047;-74
2023/09/27 06:09:42;;;;;;;2.78;2.30;;;12.20;1.00;;;;;;5125453;27;20050;-74
2023/09/27 06:12:10;;;;;;;1.88;1.33;;;12.30;1.00;;;;;;5124744;27;20046;-74
2023/09/27 06:14:36;;;;;;;1.95;1.45;;;12.30;1.00;;;;;;5122116;27;20114;-74
2023/09/27 06:17:02;;;;;;;0.75;0.75;;;12.30;1.00;;;;;;5121996;27;20205;-74
2023/09/27 06:19:28;;;;;;;1.98;1.67;;;12.60;1.00;;;;;;5123338;27;20518;-74
2023/09/27 06:21:54;;;;;;;3.55;2.33;;;12.60;8.50;;;;;;5125430;27;20039;-74
2023/09/27 06:24:19;;;;;;;2.67;1.70;;;12.40;1.00;;;;;;5125383;27;20057;-74
2023/09/27 06:26:45;;;;;;;2.40;1.17;;;12.40;1.00;;;;;;5122518;27;20705;-74
2023/09/27 06:29:10;;;;;;;1.10;1.00;;;12.50;1.00;;;;;;5121704;27;20031;-74
2023/09/27 06:31:36;;;;;;;1.02;0.77;;;12.50;1.00;;;;;;5121789;27;20050;-74
2023/09/27 06:34:02;;;;;;;1.60;1.42;;;12.40;1.00;;;;;;5122096;27;20579;-74
2023/09/27 06:36:29;;;;;;;1.98;1.42;;;12.40;1.00;;;;;;5121992;27;20040;-74
2023/09/27 06:38:56;;;;;;;1.33;1.10;;;12.40;1.00;;;;;;5120364;27;20059;-74
2023/09/27 06:41:22;;;;;;;4.57;1.95;;;12.50;1.00;;;;;;5114755;27;20047;-74
2023/09/27 06:43:48;;;;;;;4.38;1.55;;;12.50;1.00;;;;;;5115124;27;20048;-74
2023/09/27 06:46:17;;;;;;;2.05;0.90;;;12.50;1.00;;;;;;5113913;27;20089;-74
2023/09/27 06:48:43;;;;;;;1.10;0.55;;;12.50;1.00;;;;;;5120314;28;20067;-74
2023/09/27 06:51:11;;;;;;;4.18;2.28;;;12.60;1.00;;;;;;5118680;27;20047;-74
2023/09/27 06:53:38;;;;;;;1.45;1.35;;;12.80;41.60;;;;;;5118178;27;20170;-74
2023/09/27 06:56:05;;;;;;;1.40;0.88;;;12.80;56.50;;;;;;5119432;27;20556;-74
2023/09/27 06:58:31;;;;;;;2.78;2.50;;;13.00;53.30;;;;;;5121654;27;20047;-74
2023/09/27 07:00:57;;;;;;;3.65;1.30;;;13.00;39.70;;;;;;5122081;27;20050;-74
2023/09/27 07:03:27;;;;;;;1.02;0.90;;;13.20;43.90;;;;;;5118978;27;20123;-74
2023/09/27 07:05:53;;;;;;;2.90;1.58;;;13.40;36.80;;;;;;5118359;28;20050;-74
2023/09/27 07:08:19;;;;;;;6.20;2.15;;;13.60;20.70;;;;;;5119728;27;20035;-74
2023/09/27 07:10:45;;;;;;;4.88;1.38;;;13.70;1.00;;;;;;5116788;27;20054;-74
2023/09/27 07:13:11;;;;;;;5.38;2.25;;;13.90;1.00;;;;;;5118040;28;20032;-74
2023/09/27 07:15:37;;;;;;;1.55;1.45;;;14.00;1.00;;;;;;5121107;27;20108;-74
2023/09/27 07:18:04;;;;;;;2.00;1.80;;;14.20;1.00;;;;;;5121584;27;20043;-74
2023/09/27 07:20:34;;;;;;;4.43;2.13;;;14.20;1.00;;;;;;5115636;27;20373;-74
2023/09/27 07:23:03;;;;;;;2.72;1.35;;;14.30;1.00;;;;;;5119642;27;20047;-74
2023/09/27 07:25:32;;;;;;;3.15;1.77;;;14.40;1.00;;;;;;5122923;27;20035;-74
2023/09/27 07:28:00;;;;;;;1.88;1.38;;;14.60;1.00;;;;;;5125216;27;20039;-74
2023/09/27 07:30:26;;;;;;;1.70;1.15;;;14.80;1.00;;;;;;5112481;27;20048;-74
2023/09/27 07:32:56;;;;;;;2.25;1.30;;;15.00;1.00;;;;;;5123234;27;20511;-74
2023/09/27 07:35:24;;;;;;;1.45;1.13;;;15.10;99.90;;;;;;5121982;27;20043;-74
2023/09/27 07:37:49;;;;;;;3.50;2.20;;;15.20;99.90;;;;;;5122455;27;20056;-74
2023/09/27 07:40:15;;;;;;;2.75;1.70;;;15.20;99.90;;;;;;5120066;27;20051;-74
2023/09/27 07:42:42;;;;;;;2.30;1.45;;;15.30;99.90;;;;;;5112786;27;20468;-74
2023/09/27 07:45:15;;;;;;;2.35;1.88;;;15.40;99.90;;;;;;5113284;27;20043;-74
2023/09/27 07:47:41;;;;;;;2.58;1.88;;;15.50;66.50;;;;;;5120471;27;20043;-74
2023/09/27 07:50:07;;;;;;;4.72;1.58;;;15.50;1.00;;;;;;5124168;27;20512;-74
2023/09/27 07:52:32;;;;;;;3.42;1.33;;;15.70;1.00;;;;;;5124790;27;20138;-74
2023/09/27 07:54:59;;;;;;;1.27;1.17;;;15.80;1.00;;;;;;5124238;27;20046;-74
2023/09/27 07:57:25;;;;;;;1.25;1.15;;;16.00;99.90;;;;;;5121602;27;20044;-74
2023/09/27 07:59:54;;;;;;;3.00;1.20;;;16.10;99.90;;;;;;5121688;27;20142;-74
2023/09/27 08:02:21;;;;;;;3.13;2.45;;;16.20;99.90;;;;;;5123980;27;20576;-74
2023/09/27 08:04:48;;;;;;;6.15;2.00;;;16.40;1.00;;;;;;5124434;27;20078;-74
2023/09/27 08:07:14;;;;;;;4.05;1.45;;;16.40;99.90;;;;;;5123176;27;20385;-74
2023/09/27 08:09:39;;;;;;;1.80;1.42;;;16.50;99.90;;;;;;5120578;27;20046;-75
2023/09/27 08:12:05;;;;;;;1.52;1.20;;;16.50;99.90;;;;;;5120690;27;20081;-74
2023/09/27 08:14:32;;;;;;;2.90;2.35;;;16.60;5.70;;;;;;5123847;27;20054;-74
2023/09/27 08:16:58;;;;;;;1.23;1.13;;;16.60;1.00;;;;;;5124095;27;20043;-75
2023/09/27 08:19:24;;;;;;;1.70;1.55;;;16.60;35.80;;;;;;5125196;27;20039;-74
2023/09/27 08:21:50;;;;;;;1.98;1.33;;;16.80;92.80;;;;;;5121789;27;20477;-74
2023/09/27 08:24:17;;;;;;;4.07;1.10;;;16.90;1.00;;;;;;5122249;27;20047;-74
2023/09/27 08:26:43;;;;;;;3.75;1.88;;;17.10;99.90;;;;;;5124837;27;20500;-74
2023/09/27 08:29:09;;;;;;;2.10;1.85;;;17.30;99.90;;;;;;5121625;27;20267;-74
2023/09/27 08:31:38;;;;;;;1.13;1.05;;;17.60;1.00;;;;;;5123146;27;20043;-74
2023/09/27 08:34:04;;;;;;;2.60;1.40;;;17.80;1.00;;;;;;5120532;27;20032;-74
2023/09/27 08:36:30;;;;;;;2.38;1.75;;;18.00;1.00;;;;;;5120828;27;20122;-74
2023/09/27 08:38:56;;;;;;;3.28;1.58;;;18.10;1.00;;;;;;5120273;27;20051;-74
2023/09/27 08:41:23;;;;;;;2.75;1.70;;;18.30;96.50;;;;;;5120588;27;20308;-74
2023/09/27 08:43:50;;;;;;;1.45;1.00;;;18.50;1.00;;;;;;5121637;27;20044;-74
2023/09/27 08:46:18;;;;;;;0.90;0.85;;;18.70;99.90;;;;;;5123958;27;20107;-74
2023/09/27 08:48:45;;;;;;;7.03;2.75;;;18.90;99.90;;;;;;5123913;27;20039;-74
2023/09/27 08:51:11;;;;;;;1.33;1.23;;;19.10;99.90;;;;;;5120281;27;20078;-74
2023/09/27 08:53:38;;;;;;;10.25;0.77;;;19.20;99.90;;;;;;5120410;27;20528;-74
2023/09/27 08:56:06;;;;;;;1.85;1.17;;;19.40;99.90;;;;;;5121812;27;20367;-75
2023/09/27 08:58:34;;;;;;;2.45;1.73;;;19.50;1.00;;;;;;5123787;27;20074;-74
2023/09/27 09:01:00;;;;;;;3.55;1.70;;;19.60;1.00;;;;;;5113268;27;20039;-74
2023/09/27 09:03:26;;;;;;;3.75;1.73;;;19.70;1.00;;;;;;5111969;27;20095;-74
2023/09/27 09:05:53;;;;;;;1.52;1.08;;;19.80;1.00;;;;;;5120673;27;20124;-74
2023/09/27 09:08:19;;;;;;;1.25;1.15;;;19.90;1.00;;;;;;5121932;27;20055;-74
2023/09/27 09:10:45;;;;;;;1.92;1.35;;;20.10;99.90;;;;;;5122056;27;20059;-74
2023/09/27 09:13:11;;;;;;;0.57;0.50;;;20.40;99.90;;;;;;5122851;27;20408;-74
2023/09/27 09:15:40;;;;;;;2.28;0.85;;;20.90;99.90;;;;;;5120239;27;20051;-74
2023/09/27 09:18:11;;;;;;;1.42;1.00;;;21.40;99.90;;;;;;5110442;27;20081;-74
2023/09/27 09:20:54;;;;;;;0.68;0.68;;;21.70;99.90;;;;;;5120402;27;20384;-74
2023/09/27 09:23:36;;;;;;;1.17;0.75;;;22.00;99.90;;;;;;5129315;27;20388;-75
2023/09/27 09:26:11;;;;;;;2.33;1.35;;;22.20;99.90;;;;;;5115162;27;20074;-75
2023/09/27 09:28:56;;;;;;;0.38;0.38;;;22.20;99.90;;;;;;5123282;27;20079;-75
2023/09/27 09:31:23;;;;;;;0.60;0.57;;;22.40;99.90;;;;;;5124092;27;20043;-74
2023/09/27 09:34:05;;;;;;;0.63;0.52;;;22.80;99.90;;;;;;5120006;27;20387;-74
2023/09/27 09:36:32;;;;;;;0.52;0.52;;;23.40;99.90;;;;;;5119729;27;20053;-75
2023/09/27 09:39:13;;;;;;;0.55;0.55;;;23.60;99.90;;;;;;5122331;27;20086;-74
2023/09/27 09:41:53;;;;;;;1.33;0.52;;;24.00;99.90;;;;;;5121502;27;20074;-75
2023/09/27 09:44:19;;;;;;;1.20;1.10;;;24.20;99.90;;;;;;5111093;27;20579;-75
2023/09/27 09:46:45;;;;;;;1.15;0.77;;;24.00;93.80;;;;;;5117907;27;20055;-74
2023/09/27 09:49:12;;;;;;;1.85;1.02;;;24.00;99.90;;;;;;5111168;27;20130;-75
2023/09/27 09:51:41;;;;;;;4.53;1.48;;;23.80;87.30;;;;;;5103647;27;20059;-75
2023/09/27 09:54:08;;;;;;;0.43;0.40;;;23.80;48.10;;;;;;5120015;27;20048;-75
2023/09/27 09:56:35;;;;;;;0.90;0.77;;;24.00;27.40;;;;;;5122611;27;20477;-75
2023/09/27 09:59:03;;;;;;;1.50;0.65;;;23.70;1.00;;;;;;5121994;27;20576;-75
2023/09/27 10:01:32;;;;;;;1.38;0.25;;;23.40;1.00;;;;;;5119564;27;20035;-75
2023/09/27 10:04:03;;;;;;;0.52;0.45;;;23.20;1.00;;;;;;5119897;27;20130;-75
2023/09/27 10:06:30;;;;;;;1.15;0.75;;;23.10;1.00;;;;;;5110544;27;20055;-75
2023/09/27 10:08:56;;;;;;;1.42;0.88;;;23.20;1.00;;;;;;5109200;27;20168;-75
2023/09/27 10:11:23;;;;;;;0.98;0.75;;;23.20;1.00;;;;;;5120579;27;20146;-75
2023/09/27 10:13:49;;;;;;;0.40;0.40;;;23.20;1.00;;;;;;5118878;27;20043;-75
2023/09/27 10:16:18;;;;;;;0.25;0.25;;;23.40;1.00;;;;;;5121681;27;20123;-75
2023/09/27 10:18:46;;;;;;;1.63;0.85;;;23.40;1.00;;;;;;5125339;27;20088;-75
2023/09/27 10:21:13;;;;;;;0.60;0.60;;;23.40;1.00;;;;;;5125843;27;20047;-74
2023/09/27 10:23:47;;;;;;;7.05;1.25;;;23.30;1.00;;;;;;5120596;27;20081;-74
2023/09/27 10:26:37;;;;;;;0.70;0.40;;;23.30;1.00;;;;;;5119743;27;20048;-74
2023/09/27 10:29:03;;;;;;;2.92;1.00;;;23.00;1.00;;;;;;5112759;27;20055;-74
2023/09/27 10:31:33;;;;;;;0.52;0.35;;;22.90;1.00;;;;;;5120005;27;20047;-74
2023/09/27 10:33:59;;;;;;;0.98;0.85;;;23.00;1.00;;;;;;5111614;27;20042;-74
2023/09/27 10:36:24;;;;;;;0.98;0.65;;;23.30;1.00;;;;;;5119471;27;20683;-74
2023/09/27 10:38:50;;;;;;;12.18;1.08;;;23.00;1.00;;;;;;5104842;28;20048;-74
2023/09/27 10:41:34;;;;;;;1.20;0.82;;;22.90;1.00;;;;;;5124994;27;20488;-74
2023/09/27 10:44:03;;;;;;;0.55;0.50;;;22.80;1.00;;;;;;5122382;27;20054;-74
2023/09/27 10:46:45;;;;;;;0.40;0.40;;;22.70;1.00;;;;;;5122104;27;20054;-75
2023/09/27 10:49:12;;;;;;;1.10;0.52;;;22.40;1.00;;;;;;5112311;27;20043;-75
2023/09/27 10:51:38;;;;;;;1.08;0.85;;;22.50;1.00;;;;;;5121339;28;20048;-75
2023/09/27 10:54:08;;;;;;;0.43;0.43;;;22.70;1.00;;;;;;5123288;28;20063;-75
2023/09/27 10:56:34;;;;;;;0.88;0.77;;;22.60;1.00;;;;;;5125236;27;20035;-72
2023/09/27 10:59:00;;;;;;;0.65;0.63;;;22.70;1.00;;;;;;5128843;27;20114;-72
2023/09/27 11:01:26;;;;;;;0.45;0.45;;;23.00;1.00;;;;;;5124631;27;20090;-72
2023/09/27 11:04:02;;;;;;;1.00;0.60;;;23.00;1.00;;;;;;5125811;27;20044;-72
2023/09/27 11:06:29;;;;;;;2.38;2.08;;;23.10;1.00;;;;;;5117336;27;20040;-73
2023/09/27 11:09:08;;;;;;;2.90;1.35;;;23.30;1.00;;;;;;5125833;27;20504;-73
2023/09/27 11:11:34;;;;;;;0.55;0.52;;;23.20;1.00;;;;;;5117222;27;20075;-72
2023/09/27 11:14:00;;;;;;;1.73;0.82;;;22.70;1.00;;;;;;5125628;27;20075;-72
2023/09/27 11:16:26;;;;;;;0.80;0.60;;;22.80;1.00;;;;;;5127433;27;20071;-72
2023/09/27 11:18:52;;;;;;;3.22;1.50;;;23.00;1.00;;;;;;5129140;27;20373;-72
2023/09/27 11:21:23;;;;;;;0.70;0.65;;;23.30;1.00;;;;;;5128782;27;20487;-72
2023/09/27 11:24:04;;;;;;;1.10;0.80;;;22.70;1.00;;;;;;5117589;27;20069;-72
2023/09/27 11:26:31;;;;;;;0.60;0.60;;;23.00;1.00;;;;;;5126007;27;20088;-73
2023/09/27 11:29:07;;;;;;;2.55;1.13;;;22.90;1.00;;;;;;5127432;27;20047;-73
2023/09/27 11:31:38;;;;;;;0.98;0.75;;;23.10;1.00;;;;;;5127792;27;20027;-73
2023/09/27 11:34:12;;;;;;;2.78;1.25;;;23.30;1.00;;;;;;5125158;27;20052;-72
2023/09/27 11:36:41;;;;;;;0.38;0.38;;;22.80;1.00;;;;;;5125666;27;20036;-72
2023/09/27 11:39:07;;;;;;;2.08;0.85;;;22.90;1.00;;;;;;5128540;27;20032;-72
2023/09/27 11:41:33;;;;;;;0.65;0.52;;;22.80;1.00;;;;;;5120814;27;20049;-72
2023/09/27 11:43:59;;;;;;;0.25;0.25;;;22.90;1.00;;;;;;5127332;27;20059;-73
2023/09/27 11:46:27;;;;;;;0.90;0.75;;;23.00;1.00;;;;;;5128433;27;20047;-73
2023/09/27 11:48:53;;;;;;;1.05;0.90;;;23.30;1.00;;;;;;5127809;27;20090;-73
2023/09/27 11:51:18;;;;;;;0.17;0.17;;;23.50;1.00;;;;;;5124702;27;20110;-73
2023/09/27 11:53:45;;;;;;;1.10;1.00;;;23.60;1.00;;;;;;5124767;27;20043;-75
2023/09/27 11:56:12;;;;;;;1.08;0.70;;;23.70;1.00;;;;;;5127201;27;20046;-72
2023/09/27 11:58:37;;;;;;;0.60;0.40;;;23.70;1.00;;;;;;5127910;27;20027;-72
2023/09/27 12:01:05;;;;;;;2.00;1.15;;;23.70;1.00;;;;;;5127383;27;20076;-73
2023/09/27 12:03:30;;;;;;;3.10;0.75;;;23.70;1.00;;;;;;5125083;27;20036;-72
2023/09/27 12:05:56;;;;;;;1.42;1.08;;;23.50;1.00;;;;;;5124951;27;20131;-72
2023/09/27 12:08:22;;;;;;;1.33;1.02;;;23.50;1.00;;;;;;5126535;27;20126;-72
2023/09/27 12:10:48;;;;;;;1.40;1.08;;;23.20;1.00;;;;;;5128871;27;20465;-73
2023/09/27 12:13:13;;;;;;;0.98;0.90;;;22.90;1.00;;;;;;5128241;27;20043;-75
2023/09/27 12:15:39;;;;;;;0.55;0.55;;;22.60;1.00;;;;;;5125815;27;20071;-72
2023/09/27 12:18:04;;;;;;;1.75;0.95;;;22.30;1.00;;;;;;5125331;27;20118;-75
2023/09/27 12:20:30;;;;;;;1.08;1.00;;;22.40;1.00;;;;;;5126954;27;20043;-74
2023/09/27 12:22:57;;;;;;;1.25;0.93;;;22.80;1.00;;;;;;5128625;27;20046;-75
2023/09/27 12:25:22;;;;;;;1.95;1.02;;;22.90;1.00;;;;;;5128507;27;20037;-73
2023/09/27 12:27:48;;;;;;;0.77;0.60;;;23.10;1.00;;;;;;5125213;27;20031;-73
2023/09/27 12:30:14;;;;;;;10.77;1.50;;;23.20;1.00;;;;;;5125107;27;20046;-73
2023/09/27 12:32:39;;;;;;;1.55;0.70;;;23.20;1.00;;;;;;5125148;27;20126;-75
2023/09/27 12:35:05;;;;;;;3.70;1.90;;;23.40;1.00;;;;;;5124944;27;20050;-73
2023/09/27 12:37:31;;;;;;;3.03;0.63;;;23.40;1.00;;;;;;5125133;27;20032;-73
2023/09/27 12:39:59;;;;;;;2.00;0.95;;;23.40;1.00;;;;;;5124951;27;20096;-75
2023/09/27 12:42:26;;;;;;;0.65;0.52;;;23.50;1.00;;;;;;5130988;27;20039;-73
2023/09/27 12:44:51;;;;;;;1.00;0.85;;;23.60;1.00;;;;;;5117970;27;20405;-73
2023/09/27 12:47:17;;;;;;;1.30;1.10;;;23.60;1.00;;;;;;5127752;27;20036;-73
2023/09/27 12:49:43;;;;;;;1.70;0.68;;;23.60;1.00;;;;;;5127301;27;20027;-73
2023/09/27 12:52:08;;;;;;;0.75;0.50;;;23.90;1.00;;;;;;5124203;27;20043;-73